More Magic — 2DWJ4 — position and weather

sailwx.info

Track history (hours):
 
Tides and Currents Weather Stations Pressure Air Temp Water Temp Dewpoint Dewpoint Depression Visibility Wind Speed Wind Dir Waves Ship Positions

More Magic

Last reported at 2017-Jun-25 15:51 UTC. Time now 2017-Jun-26 18:52 UTC.
Position N 56°27' W 005°26'.

Length 20 m.

Type: Sailing vessel. MMSI: 235082545.

Date/timePositionNaut miles runAvg speedWind from/ knotsBaromVisibWave heightAir tempDewpointWater temp
2017-Jun-25 15:51N 56°27' W 005°26'0 0.0
2017-Jun-25 15:27N 56°27' W 005°26'1 2.4
2017-Jun-25 15:00N 56°27' W 005°28'7 6.7
2017-Jun-25 14:00N 56°23' W 005°37'54 2.3
2017-Jun-24 14:38N 55°31' W 006°04'710.0
2017-Jun-24 13:58N 55°24' W 006°03'36 8.9
2017-Jun-24 09:57N 54°51' W 005°41'3 7.2
2017-Jun-24 09:30N 54°48' W 005°40'3 6.7
2017-Jun-24 09:00N 54°45' W 005°41'3 6.3
2017-Jun-24 08:30N 54°41' W 005°41'2 3.0
2017-Jun-24 07:59N 54°40' W 005°40'0 0.0
2017-Jun-24 07:29N 54°40' W 005°40'0 0.0
2017-Jun-23 17:07N 54°40' W 005°40'0 0.7
2017-Jun-23 17:00N 54°40' W 005°40'3 6.3
2017-Jun-23 16:30N 54°41' W 005°35'3 5.8
2017-Jun-23 16:00N 54°39' W 005°32'4 7.3
2017-Jun-23 15:30N 54°36' W 005°28'4 8.5
2017-Jun-23 15:00N 54°32' W 005°26'8 8.3
2017-Jun-23 14:00N 54°24' W 005°23'  
2017-Jun-18 10:33N 52°08' W 006°35'0 8.7
2017-Jun-18 10:30N 52°08' W 006°36'7 8.4
2017-Jun-18 09:42N 52°08' W 006°47'2 8.3
2017-Jun-18 09:30N 52°08' W 006°49'4 7.9
2017-Jun-18 08:59N 52°07' W 006°56'3 0.2
2017-Jun-17 17:22N 52°09' W 006°59'2 5.8
2017-Jun-17 17:00N 52°07' W 007°01'4 9.1
2017-Jun-17 16:30N 52°05' W 007°07'5 9.4
2017-Jun-17 16:00N 52°02' W 007°13'5 9.4
2017-Jun-17 15:30N 52°00' W 007°20'5 9.1
2017-Jun-17 15:00N 51°58' W 007°27'10 9.4
2017-Jun-17 13:59N 51°54' W 007°41'4 9.2
2017-Jun-17 13:30N 51°52' W 007°47'4 8.7
2017-Jun-17 12:59N 51°50' W 007°54'4 7.9
2017-Jun-17 12:29N 51°48' W 007°59'4 7.8
2017-Jun-17 12:00N 51°47' W 008°05'4 7.9
2017-Jun-17 11:30N 51°45' W 008°11'4 8.1
2017-Jun-17 11:00N 51°43' W 008°17'4 8.0
2017-Jun-17 10:30N 51°41' W 008°22'4 7.9
2017-Jun-17 10:00N 51°40' W 008°28'3 5.2
2017-Jun-17 09:30N 51°42' W 008°30'0 0.7
2017-Jun-17 09:00N 51°42' W 008°31'  
Track history (hours):
 
Tides and Currents Weather Stations Pressure Air Temp Water Temp Dewpoint Dewpoint Depression Visibility Wind Speed Wind Dir Waves Ship Positions

More Magic

Last reported at 2017-Jun-25 15:51 UTC. Time now 2017-Jun-26 18:52 UTC.
Position N 56°27' W 005°26'.

Length 20 m.

Type: Sailing vessel. MMSI: 235082545.

Date/timePositionNaut miles runAvg speedWind from/ knotsBaromVisibWave heightAir tempDewpointWater temp
2017-Jun-25 15:51N 56°27' W 005°26'0 0.0
2017-Jun-25 15:27N 56°27' W 005°26'1 2.4
2017-Jun-25 15:00N 56°27' W 005°28'7 6.7
2017-Jun-25 14:00N 56°23' W 005°37'54 2.3
2017-Jun-24 14:38N 55°31' W 006°04'710.0
2017-Jun-24 13:58N 55°24' W 006°03'36 8.9
2017-Jun-24 09:57N 54°51' W 005°41'3 7.2
2017-Jun-24 09:30N 54°48' W 005°40'3 6.7
2017-Jun-24 09:00N 54°45' W 005°41'3 6.3
2017-Jun-24 08:30N 54°41' W 005°41'2 3.0
2017-Jun-24 07:59N 54°40' W 005°40'0 0.0
2017-Jun-24 07:29N 54°40' W 005°40'0 0.0
2017-Jun-23 17:07N 54°40' W 005°40'0 0.7
2017-Jun-23 17:00N 54°40' W 005°40'3 6.3
2017-Jun-23 16:30N 54°41' W 005°35'3 5.8
2017-Jun-23 16:00N 54°39' W 005°32'4 7.3
2017-Jun-23 15:30N 54°36' W 005°28'4 8.5
2017-Jun-23 15:00N 54°32' W 005°26'8 8.3
2017-Jun-23 14:00N 54°24' W 005°23'  
2017-Jun-18 10:33N 52°08' W 006°35'0 8.7
2017-Jun-18 10:30N 52°08' W 006°36'7 8.4
2017-Jun-18 09:42N 52°08' W 006°47'2 8.3
2017-Jun-18 09:30N 52°08' W 006°49'4 7.9
2017-Jun-18 08:59N 52°07' W 006°56'3 0.2
2017-Jun-17 17:22N 52°09' W 006°59'2 5.8
2017-Jun-17 17:00N 52°07' W 007°01'4 9.1
2017-Jun-17 16:30N 52°05' W 007°07'5 9.4
2017-Jun-17 16:00N 52°02' W 007°13'5 9.4
2017-Jun-17 15:30N 52°00' W 007°20'5 9.1
2017-Jun-17 15:00N 51°58' W 007°27'10 9.4
2017-Jun-17 13:59N 51°54' W 007°41'4 9.2
2017-Jun-17 13:30N 51°52' W 007°47'4 8.7
2017-Jun-17 12:59N 51°50' W 007°54'4 7.9
2017-Jun-17 12:29N 51°48' W 007°59'4 7.8
2017-Jun-17 12:00N 51°47' W 008°05'4 7.9
2017-Jun-17 11:30N 51°45' W 008°11'4 8.1
2017-Jun-17 11:00N 51°43' W 008°17'4 8.0
2017-Jun-17 10:30N 51°41' W 008°22'4 7.9
2017-Jun-17 10:00N 51°40' W 008°28'3 5.2
2017-Jun-17 09:30N 51°42' W 008°30'0 0.7
2017-Jun-17 09:00N 51°42' W 008°31'  

Dump ship's entire track history